sensor_id;sensor_type;location;lat;lon;timestamp;P1;durP1;ratioP1;P2;durP2;ratioP2
29902;SDS011;30288;50.514;9.678;2024-02-21T00:00:18;18.83;;;6.53;;
29902;SDS011;30288;50.514;9.678;2024-02-21T00:02:24;21.67;;;7.03;;
29902;SDS011;30288;50.514;9.678;2024-02-21T00:04:30;26.98;;;7.00;;
29902;SDS011;30288;50.514;9.678;2024-02-21T00:06:35;28.50;;;7.82;;
29902;SDS011;30288;50.514;9.678;2024-02-21T00:08:40;17.45;;;6.40;;
29902;SDS011;30288;50.514;9.678;2024-02-21T00:10:46;19.73;;;7.40;;
29902;SDS011;30288;50.514;9.678;2024-02-21T00:12:52;24.45;;;6.88;;
29902;SDS011;30288;50.514;9.678;2024-02-21T00:14:58;17.20;;;6.50;;
29902;SDS011;30288;50.514;9.678;2024-02-21T00:17:07;20.45;;;6.40;;
29902;SDS011;30288;50.514;9.678;2024-02-21T00:19:13;18.83;;;6.55;;
29902;SDS011;30288;50.514;9.678;2024-02-21T00:21:18;27.17;;;6.82;;
29902;SDS011;30288;50.514;9.678;2024-02-21T00:23:25;19.77;;;6.68;;
29902;SDS011;30288;50.514;9.678;2024-02-21T00:25:28;23.75;;;6.35;;
29902;SDS011;30288;50.514;9.678;2024-02-21T00:27:36;21.58;;;7.10;;
29902;SDS011;30288;50.514;9.678;2024-02-21T00:29:42;21.02;;;5.70;;
29902;SDS011;30288;50.514;9.678;2024-02-21T00:31:48;18.70;;;5.95;;
29902;SDS011;30288;50.514;9.678;2024-02-21T00:33:57;18.52;;;5.75;;
29902;SDS011;30288;50.514;9.678;2024-02-21T00:36:02;19.48;;;6.35;;
29902;SDS011;30288;50.514;9.678;2024-02-21T00:38:09;19.00;;;6.45;;
29902;SDS011;30288;50.514;9.678;2024-02-21T00:40:14;21.02;;;5.72;;
29902;SDS011;30288;50.514;9.678;2024-02-21T00:42:22;16.02;;;5.53;;
29902;SDS011;30288;50.514;9.678;2024-02-21T00:44:28;19.45;;;6.72;;
29902;SDS011;30288;50.514;9.678;2024-02-21T00:46:34;18.25;;;6.03;;
29902;SDS011;30288;50.514;9.678;2024-02-21T00:48:41;18.00;;;5.88;;
29902;SDS011;30288;50.514;9.678;2024-02-21T00:50:50;19.10;;;6.10;;
29902;SDS011;30288;50.514;9.678;2024-02-21T00:52:55;16.70;;;5.72;;
29902;SDS011;30288;50.514;9.678;2024-02-21T00:55:01;20.80;;;5.80;;
29902;SDS011;30288;50.514;9.678;2024-02-21T00:57:05;25.95;;;6.53;;
29902;SDS011;30288;50.514;9.678;2024-02-21T00:59:10;21.58;;;6.07;;
29902;SDS011;30288;50.514;9.678;2024-02-21T01:01:23;18.10;;;6.38;;
29902;SDS011;30288;50.514;9.678;2024-02-21T01:03:29;16.75;;;5.65;;
29902;SDS011;30288;50.514;9.678;2024-02-21T01:05:35;19.35;;;5.57;;
29902;SDS011;30288;50.514;9.678;2024-02-21T01:07:43;27.20;;;5.82;;
29902;SDS011;30288;50.514;9.678;2024-02-21T01:09:49;24.30;;;6.10;;
29902;SDS011;30288;50.514;9.678;2024-02-21T01:11:52;21.33;;;5.90;;
29902;SDS011;30288;50.514;9.678;2024-02-21T01:13:58;17.33;;;5.05;;
29902;SDS011;30288;50.514;9.678;2024-02-21T01:16:06;18.02;;;5.72;;
29902;SDS011;30288;50.514;9.678;2024-02-21T01:18:12;18.08;;;6.30;;
29902;SDS011;30288;50.514;9.678;2024-02-21T01:20:19;20.55;;;6.03;;
29902;SDS011;30288;50.514;9.678;2024-02-21T01:22:25;21.35;;;5.63;;
29902;SDS011;30288;50.514;9.678;2024-02-21T01:24:33;23.13;;;6.07;;
29902;SDS011;30288;50.514;9.678;2024-02-21T01:26:39;21.02;;;5.90;;
29902;SDS011;30288;50.514;9.678;2024-02-21T01:28:43;22.65;;;5.93;;
29902;SDS011;30288;50.514;9.678;2024-02-21T01:30:49;14.10;;;5.47;;
29902;SDS011;30288;50.514;9.678;2024-02-21T01:32:54;21.00;;;6.90;;
29902;SDS011;30288;50.514;9.678;2024-02-21T01:34:58;19.02;;;5.88;;
29902;SDS011;30288;50.514;9.678;2024-02-21T01:37:04;20.73;;;6.45;;
29902;SDS011;30288;50.514;9.678;2024-02-21T01:39:12;20.42;;;5.93;;
29902;SDS011;30288;50.514;9.678;2024-02-21T01:41:23;18.67;;;6.00;;
29902;SDS011;30288;50.514;9.678;2024-02-21T01:43:29;21.17;;;7.03;;
29902;SDS011;30288;50.514;9.678;2024-02-21T01:45:34;17.35;;;5.72;;
29902;SDS011;30288;50.514;9.678;2024-02-21T01:47:37;19.45;;;5.80;;
29902;SDS011;30288;50.514;9.678;2024-02-21T01:49:43;22.30;;;6.38;;
29902;SDS011;30288;50.514;9.678;2024-02-21T01:51:47;19.63;;;6.63;;
29902;SDS011;30288;50.514;9.678;2024-02-21T01:53:52;23.13;;;6.32;;
29902;SDS011;30288;50.514;9.678;2024-02-21T01:55:59;18.98;;;6.47;;
29902;SDS011;30288;50.514;9.678;2024-02-21T01:58:10;14.10;;;6.20;;
29902;SDS011;30288;50.514;9.678;2024-02-21T02:00:17;20.23;;;6.75;;
29902;SDS011;30288;50.514;9.678;2024-02-21T02:02:24;18.05;;;6.40;;
29902;SDS011;30288;50.514;9.678;2024-02-21T02:04:31;19.55;;;6.90;;
29902;SDS011;30288;50.514;9.678;2024-02-21T02:06:37;19.15;;;6.40;;
29902;SDS011;30288;50.514;9.678;2024-02-21T02:08:40;19.42;;;6.63;;
29902;SDS011;30288;50.514;9.678;2024-02-21T02:10:46;23.50;;;6.90;;
29902;SDS011;30288;50.514;9.678;2024-02-21T02:12:52;24.90;;;7.25;;
29902;SDS011;30288;50.514;9.678;2024-02-21T02:15:01;19.38;;;7.10;;
29902;SDS011;30288;50.514;9.678;2024-02-21T02:17:08;18.58;;;6.78;;
29902;SDS011;30288;50.514;9.678;2024-02-21T02:19:13;18.88;;;6.38;;
29902;SDS011;30288;50.514;9.678;2024-02-21T02:21:23;19.33;;;5.82;;
29902;SDS011;30288;50.514;9.678;2024-02-21T02:23:36;24.38;;;6.80;;
29902;SDS011;30288;50.514;9.678;2024-02-21T02:25:42;23.02;;;7.45;;
29902;SDS011;30288;50.514;9.678;2024-02-21T02:27:52;21.15;;;7.35;;
29902;SDS011;30288;50.514;9.678;2024-02-21T02:29:58;19.45;;;5.97;;
29902;SDS011;30288;50.514;9.678;2024-02-21T02:32:05;19.13;;;6.43;;
29902;SDS011;30288;50.514;9.678;2024-02-21T02:34:10;20.75;;;7.47;;
29902;SDS011;30288;50.514;9.678;2024-02-21T02:36:16;19.90;;;7.15;;
29902;SDS011;30288;50.514;9.678;2024-02-21T02:38:21;25.23;;;7.15;;
29902;SDS011;30288;50.514;9.678;2024-02-21T02:40:30;23.02;;;7.38;;
29902;SDS011;30288;50.514;9.678;2024-02-21T02:42:33;19.98;;;7.57;;
29902;SDS011;30288;50.514;9.678;2024-02-21T02:44:38;22.60;;;8.40;;
29902;SDS011;30288;50.514;9.678;2024-02-21T02:46:44;21.75;;;6.85;;
29902;SDS011;30288;50.514;9.678;2024-02-21T02:48:49;20.83;;;7.18;;
29902;SDS011;30288;50.514;9.678;2024-02-21T02:50:54;24.00;;;7.32;;
29902;SDS011;30288;50.514;9.678;2024-02-21T02:53:00;18.30;;;6.85;;
29902;SDS011;30288;50.514;9.678;2024-02-21T02:55:06;19.25;;;7.40;;
29902;SDS011;30288;50.514;9.678;2024-02-21T02:57:13;21.45;;;7.68;;
29902;SDS011;30288;50.514;9.678;2024-02-21T02:59:18;19.90;;;7.63;;
29902;SDS011;30288;50.514;9.678;2024-02-21T03:01:24;17.98;;;8.15;;
29902;SDS011;30288;50.514;9.678;2024-02-21T03:03:30;20.63;;;7.45;;
29902;SDS011;30288;50.514;9.678;2024-02-21T03:05:35;21.70;;;8.55;;
29902;SDS011;30288;50.514;9.678;2024-02-21T03:07:40;25.17;;;10.38;;
29902;SDS011;30288;50.514;9.678;2024-02-21T03:09:47;26.95;;;9.43;;
29902;SDS011;30288;50.514;9.678;2024-02-21T03:11:54;19.67;;;10.07;;
29902;SDS011;30288;50.514;9.678;2024-02-21T03:14:07;19.60;;;8.73;;
29902;SDS011;30288;50.514;9.678;2024-02-21T03:16:12;23.45;;;11.10;;
29902;SDS011;30288;50.514;9.678;2024-02-21T03:18:21;28.25;;;10.65;;
29902;SDS011;30288;50.514;9.678;2024-02-21T03:20:26;28.13;;;10.60;;
29902;SDS011;30288;50.514;9.678;2024-02-21T03:22:34;27.95;;;11.15;;
29902;SDS011;30288;50.514;9.678;2024-02-21T03:24:42;27.95;;;11.85;;
29902;SDS011;30288;50.514;9.678;2024-02-21T03:26:49;25.33;;;11.10;;
29902;SDS011;30288;50.514;9.678;2024-02-21T03:28:54;24.08;;;11.40;;
29902;SDS011;30288;50.514;9.678;2024-02-21T03:31:02;24.85;;;10.70;;
29902;SDS011;30288;50.514;9.678;2024-02-21T03:33:08;29.52;;;11.15;;
29902;SDS011;30288;50.514;9.678;2024-02-21T03:35:14;21.98;;;10.80;;
29902;SDS011;30288;50.514;9.678;2024-02-21T03:37:19;24.58;;;11.23;;
29902;SDS011;30288;50.514;9.678;2024-02-21T03:39:24;30.88;;;11.88;;
29902;SDS011;30288;50.514;9.678;2024-02-21T03:41:30;21.30;;;11.40;;
29902;SDS011;30288;50.514;9.678;2024-02-21T03:43:37;28.02;;;12.15;;
29902;SDS011;30288;50.514;9.678;2024-02-21T03:45:42;25.08;;;11.43;;
29902;SDS011;30288;50.514;9.678;2024-02-21T03:47:50;26.98;;;11.55;;
29902;SDS011;30288;50.514;9.678;2024-02-21T03:49:56;33.60;;;12.35;;
29902;SDS011;30288;50.514;9.678;2024-02-21T03:52:02;23.70;;;11.20;;
29902;SDS011;30288;50.514;9.678;2024-02-21T03:54:09;27.63;;;11.70;;
29902;SDS011;30288;50.514;9.678;2024-02-21T03:56:15;27.98;;;10.75;;
29902;SDS011;30288;50.514;9.678;2024-02-21T03:58:20;27.77;;;11.73;;
29902;SDS011;30288;50.514;9.678;2024-02-21T04:00:27;30.13;;;11.77;;
29902;SDS011;30288;50.514;9.678;2024-02-21T04:02:32;24.77;;;11.43;;
29902;SDS011;30288;50.514;9.678;2024-02-21T04:04:37;30.33;;;11.00;;
29902;SDS011;30288;50.514;9.678;2024-02-21T04:06:48;29.73;;;12.65;;
29902;SDS011;30288;50.514;9.678;2024-02-21T04:08:53;25.60;;;11.30;;
29902;SDS011;30288;50.514;9.678;2024-02-21T04:10:59;25.02;;;12.18;;
29902;SDS011;30288;50.514;9.678;2024-02-21T04:13:05;28.20;;;10.90;;
29902;SDS011;30288;50.514;9.678;2024-02-21T04:15:11;27.58;;;12.48;;
29902;SDS011;30288;50.514;9.678;2024-02-21T04:17:17;29.08;;;11.68;;
29902;SDS011;30288;50.514;9.678;2024-02-21T04:19:23;24.17;;;10.93;;
29902;SDS011;30288;50.514;9.678;2024-02-21T04:21:29;27.77;;;11.23;;
29902;SDS011;30288;50.514;9.678;2024-02-21T04:23:34;23.52;;;11.63;;
29902;SDS011;30288;50.514;9.678;2024-02-21T04:25:39;24.83;;;11.30;;
29902;SDS011;30288;50.514;9.678;2024-02-21T04:27:45;24.17;;;11.23;;
29902;SDS011;30288;50.514;9.678;2024-02-21T04:29:51;30.77;;;11.93;;
29902;SDS011;30288;50.514;9.678;2024-02-21T04:31:57;23.95;;;12.07;;
29902;SDS011;30288;50.514;9.678;2024-02-21T04:34:03;23.67;;;11.93;;
29902;SDS011;30288;50.514;9.678;2024-02-21T04:36:10;27.83;;;11.73;;
29902;SDS011;30288;50.514;9.678;2024-02-21T04:38:19;28.15;;;11.88;;
29902;SDS011;30288;50.514;9.678;2024-02-21T04:40:25;25.65;;;11.43;;
29902;SDS011;30288;50.514;9.678;2024-02-21T04:42:30;23.38;;;10.70;;
29902;SDS011;30288;50.514;9.678;2024-02-21T04:44:35;26.35;;;11.88;;
29902;SDS011;30288;50.514;9.678;2024-02-21T04:46:42;27.85;;;11.40;;
29902;SDS011;30288;50.514;9.678;2024-02-21T04:48:48;25.60;;;11.25;;
29902;SDS011;30288;50.514;9.678;2024-02-21T04:50:54;26.63;;;11.07;;
29902;SDS011;30288;50.514;9.678;2024-02-21T04:52:59;24.25;;;10.88;;
29902;SDS011;30288;50.514;9.678;2024-02-21T04:55:09;25.13;;;11.77;;
29902;SDS011;30288;50.514;9.678;2024-02-21T04:57:15;28.35;;;12.35;;
29902;SDS011;30288;50.514;9.678;2024-02-21T04:59:20;21.23;;;10.30;;
29902;SDS011;30288;50.514;9.678;2024-02-21T05:01:26;25.58;;;11.90;;
29902;SDS011;30288;50.514;9.678;2024-02-21T05:03:33;24.30;;;11.43;;
29902;SDS011;30288;50.514;9.678;2024-02-21T05:05:40;24.10;;;10.50;;
29902;SDS011;30288;50.514;9.678;2024-02-21T05:07:45;25.48;;;11.73;;
29902;SDS011;30288;50.514;9.678;2024-02-21T05:09:48;25.45;;;10.98;;
29902;SDS011;30288;50.514;9.678;2024-02-21T05:11:56;26.50;;;10.57;;
29902;SDS011;30288;50.514;9.678;2024-02-21T05:14:03;21.08;;;10.43;;
29902;SDS011;30288;50.514;9.678;2024-02-21T05:16:09;26.15;;;9.85;;
29902;SDS011;30288;50.514;9.678;2024-02-21T05:18:15;27.67;;;10.85;;
29902;SDS011;30288;50.514;9.678;2024-02-21T05:20:22;22.73;;;10.13;;
29902;SDS011;30288;50.514;9.678;2024-02-21T05:22:28;29.48;;;10.55;;
29902;SDS011;30288;50.514;9.678;2024-02-21T05:24:34;24.38;;;10.85;;
29902;SDS011;30288;50.514;9.678;2024-02-21T05:26:40;20.63;;;9.73;;
29902;SDS011;30288;50.514;9.678;2024-02-21T05:28:48;23.77;;;10.38;;
29902;SDS011;30288;50.514;9.678;2024-02-21T05:30:54;26.00;;;9.70;;
29902;SDS011;30288;50.514;9.678;2024-02-21T05:33:03;20.48;;;10.10;;
29902;SDS011;30288;50.514;9.678;2024-02-21T05:35:10;23.02;;;8.98;;
29902;SDS011;30288;50.514;9.678;2024-02-21T05:37:15;21.63;;;10.30;;
29902;SDS011;30288;50.514;9.678;2024-02-21T05:39:21;23.42;;;9.73;;
29902;SDS011;30288;50.514;9.678;2024-02-21T05:41:26;24.40;;;9.90;;
29902;SDS011;30288;50.514;9.678;2024-02-21T05:43:34;18.45;;;9.50;;
29902;SDS011;30288;50.514;9.678;2024-02-21T05:45:45;23.10;;;10.00;;
29902;SDS011;30288;50.514;9.678;2024-02-21T05:47:53;18.92;;;8.48;;
29902;SDS011;30288;50.514;9.678;2024-02-21T05:49:59;23.05;;;9.02;;
29902;SDS011;30288;50.514;9.678;2024-02-21T05:52:07;24.90;;;8.80;;
29902;SDS011;30288;50.514;9.678;2024-02-21T05:54:13;27.33;;;10.25;;
29902;SDS011;30288;50.514;9.678;2024-02-21T05:56:15;21.08;;;9.35;;
29902;SDS011;30288;50.514;9.678;2024-02-21T05:58:22;23.02;;;9.43;;
29902;SDS011;30288;50.514;9.678;2024-02-21T06:00:27;21.67;;;8.55;;
29902;SDS011;30288;50.514;9.678;2024-02-21T06:02:36;27.40;;;9.65;;
29902;SDS011;30288;50.514;9.678;2024-02-21T06:04:42;27.52;;;9.57;;
29902;SDS011;30288;50.514;9.678;2024-02-21T06:06:48;22.27;;;8.73;;
29902;SDS011;30288;50.514;9.678;2024-02-21T06:08:54;26.63;;;9.52;;
29902;SDS011;30288;50.514;9.678;2024-02-21T06:11:04;18.23;;;8.50;;
29902;SDS011;30288;50.514;9.678;2024-02-21T06:13:09;22.15;;;9.38;;
29902;SDS011;30288;50.514;9.678;2024-02-21T06:15:15;28.52;;;11.02;;
29902;SDS011;30288;50.514;9.678;2024-02-21T06:17:22;32.70;;;11.10;;
29902;SDS011;30288;50.514;9.678;2024-02-21T06:19:30;24.55;;;9.80;;
29902;SDS011;30288;50.514;9.678;2024-02-21T06:21:36;21.35;;;10.05;;
29902;SDS011;30288;50.514;9.678;2024-02-21T06:23:42;25.95;;;9.80;;
29902;SDS011;30288;50.514;9.678;2024-02-21T06:25:47;25.25;;;9.80;;
29902;SDS011;30288;50.514;9.678;2024-02-21T06:27:53;21.38;;;10.07;;
29902;SDS011;30288;50.514;9.678;2024-02-21T06:29:58;22.80;;;9.85;;
29902;SDS011;30288;50.514;9.678;2024-02-21T06:32:04;22.98;;;9.68;;
29902;SDS011;30288;50.514;9.678;2024-02-21T06:34:10;22.70;;;10.48;;
29902;SDS011;30288;50.514;9.678;2024-02-21T06:36:18;20.77;;;9.32;;
29902;SDS011;30288;50.514;9.678;2024-02-21T06:38:22;23.30;;;10.30;;
29902;SDS011;30288;50.514;9.678;2024-02-21T06:40:29;31.05;;;11.05;;
29902;SDS011;30288;50.514;9.678;2024-02-21T06:42:40;20.15;;;9.55;;
29902;SDS011;30288;50.514;9.678;2024-02-21T06:44:46;23.98;;;10.45;;
29902;SDS011;30288;50.514;9.678;2024-02-21T06:46:52;21.08;;;9.85;;
29902;SDS011;30288;50.514;9.678;2024-02-21T06:48:58;25.10;;;10.55;;
29902;SDS011;30288;50.514;9.678;2024-02-21T06:51:05;22.60;;;10.45;;
29902;SDS011;30288;50.514;9.678;2024-02-21T06:53:13;26.33;;;10.60;;
29902;SDS011;30288;50.514;9.678;2024-02-21T06:55:19;26.27;;;10.43;;
29902;SDS011;30288;50.514;9.678;2024-02-21T06:57:25;19.17;;;10.35;;
29902;SDS011;30288;50.514;9.678;2024-02-21T06:59:33;30.65;;;10.93;;
29902;SDS011;30288;50.514;9.678;2024-02-21T07:01:38;21.50;;;10.07;;
29902;SDS011;30288;50.514;9.678;2024-02-21T07:03:45;25.80;;;10.73;;
29902;SDS011;30288;50.514;9.678;2024-02-21T07:05:51;22.77;;;11.10;;
29902;SDS011;30288;50.514;9.678;2024-02-21T07:07:54;28.17;;;10.88;;
29902;SDS011;30288;50.514;9.678;2024-02-21T07:10:02;24.35;;;10.57;;
29902;SDS011;30288;50.514;9.678;2024-02-21T07:12:10;25.35;;;11.10;;
29902;SDS011;30288;50.514;9.678;2024-02-21T07:14:15;26.95;;;11.82;;
29902;SDS011;30288;50.514;9.678;2024-02-21T07:16:22;23.15;;;10.25;;
29902;SDS011;30288;50.514;9.678;2024-02-21T07:18:28;25.73;;;10.63;;
29902;SDS011;30288;50.514;9.678;2024-02-21T07:20:33;27.08;;;10.57;;
29902;SDS011;30288;50.514;9.678;2024-02-21T07:22:39;21.70;;;9.88;;
29902;SDS011;30288;50.514;9.678;2024-02-21T07:24:41;20.65;;;9.68;;
29902;SDS011;30288;50.514;9.678;2024-02-21T07:26:49;24.25;;;9.43;;
29902;SDS011;30288;50.514;9.678;2024-02-21T07:28:55;27.08;;;10.35;;
29902;SDS011;30288;50.514;9.678;2024-02-21T07:31:01;19.80;;;9.90;;
29902;SDS011;30288;50.514;9.678;2024-02-21T07:33:07;18.33;;;10.00;;
29902;SDS011;30288;50.514;9.678;2024-02-21T07:35:12;26.98;;;9.55;;
29902;SDS011;30288;50.514;9.678;2024-02-21T07:37:18;21.27;;;9.57;;
29902;SDS011;30288;50.514;9.678;2024-02-21T07:39:24;21.85;;;9.60;;
29902;SDS011;30288;50.514;9.678;2024-02-21T07:41:30;22.63;;;9.15;;
29902;SDS011;30288;50.514;9.678;2024-02-21T07:43:38;22.83;;;9.48;;
29902;SDS011;30288;50.514;9.678;2024-02-21T07:45:47;24.38;;;9.10;;
29902;SDS011;30288;50.514;9.678;2024-02-21T07:47:53;23.83;;;9.05;;
29902;SDS011;30288;50.514;9.678;2024-02-21T07:49:59;27.15;;;9.07;;
29902;SDS011;30288;50.514;9.678;2024-02-21T07:52:05;19.98;;;7.70;;
29902;SDS011;30288;50.514;9.678;2024-02-21T07:54:11;19.42;;;8.70;;
29902;SDS011;30288;50.514;9.678;2024-02-21T07:56:19;21.35;;;9.25;;
29902;SDS011;30288;50.514;9.678;2024-02-21T07:58:25;21.38;;;8.10;;
29902;SDS011;30288;50.514;9.678;2024-02-21T08:00:37;19.48;;;7.63;;
29902;SDS011;30288;50.514;9.678;2024-02-21T08:02:42;22.38;;;9.15;;
29902;SDS011;30288;50.514;9.678;2024-02-21T08:04:45;20.23;;;8.15;;
29902;SDS011;30288;50.514;9.678;2024-02-21T08:06:52;18.35;;;8.25;;
29902;SDS011;30288;50.514;9.678;2024-02-21T08:09:03;21.73;;;8.00;;
29902;SDS011;30288;50.514;9.678;2024-02-21T08:11:08;22.00;;;8.35;;
29902;SDS011;30288;50.514;9.678;2024-02-21T08:13:14;21.55;;;8.35;;
29902;SDS011;30288;50.514;9.678;2024-02-21T08:15:20;17.65;;;7.32;;
29902;SDS011;30288;50.514;9.678;2024-02-21T08:17:33;15.88;;;7.53;;
29902;SDS011;30288;50.514;9.678;2024-02-21T08:19:38;18.38;;;8.18;;
29902;SDS011;30288;50.514;9.678;2024-02-21T08:21:44;21.05;;;7.97;;
29902;SDS011;30288;50.514;9.678;2024-02-21T08:23:50;17.85;;;7.88;;
29902;SDS011;30288;50.514;9.678;2024-02-21T08:25:57;19.83;;;7.65;;
29902;SDS011;30288;50.514;9.678;2024-02-21T08:28:04;18.77;;;7.82;;
29902;SDS011;30288;50.514;9.678;2024-02-21T08:30:11;17.63;;;7.25;;
29902;SDS011;30288;50.514;9.678;2024-02-21T08:32:18;17.05;;;7.05;;
29902;SDS011;30288;50.514;9.678;2024-02-21T08:34:26;20.90;;;7.95;;
29902;SDS011;30288;50.514;9.678;2024-02-21T08:36:36;25.90;;;8.50;;
29902;SDS011;30288;50.514;9.678;2024-02-21T08:38:41;15.70;;;6.95;;
29902;SDS011;30288;50.514;9.678;2024-02-21T08:40:46;15.25;;;7.05;;
29902;SDS011;30288;50.514;9.678;2024-02-21T08:42:51;19.52;;;7.82;;
29902;SDS011;30288;50.514;9.678;2024-02-21T08:44:57;14.48;;;6.45;;
29902;SDS011;30288;50.514;9.678;2024-02-21T08:47:03;18.92;;;7.30;;
29902;SDS011;30288;50.514;9.678;2024-02-21T08:49:10;17.08;;;7.47;;
29902;SDS011;30288;50.514;9.678;2024-02-21T08:51:19;16.00;;;6.95;;
29902;SDS011;30288;50.514;9.678;2024-02-21T08:53:26;17.63;;;7.10;;
29902;SDS011;30288;50.514;9.678;2024-02-21T08:55:31;22.20;;;7.75;;
29902;SDS011;30288;50.514;9.678;2024-02-21T08:57:39;20.95;;;8.77;;
29902;SDS011;30288;50.514;9.678;2024-02-21T08:59:47;17.83;;;7.88;;
29902;SDS011;30288;50.514;9.678;2024-02-21T09:01:52;15.40;;;7.22;;
29902;SDS011;30288;50.514;9.678;2024-02-21T09:03:58;16.38;;;9.10;;
29902;SDS011;30288;50.514;9.678;2024-02-21T09:06:05;20.38;;;8.25;;
29902;SDS011;30288;50.514;9.678;2024-02-21T09:08:14;19.52;;;9.25;;
29902;SDS011;30288;50.514;9.678;2024-02-21T09:10:22;18.08;;;8.82;;
29902;SDS011;30288;50.514;9.678;2024-02-21T09:12:28;15.90;;;8.18;;
29902;SDS011;30288;50.514;9.678;2024-02-21T09:14:34;16.63;;;8.52;;
29902;SDS011;30288;50.514;9.678;2024-02-21T09:16:41;19.55;;;8.80;;
29902;SDS011;30288;50.514;9.678;2024-02-21T09:18:49;19.08;;;7.93;;
29902;SDS011;30288;50.514;9.678;2024-02-21T09:20:56;17.02;;;7.65;;
29902;SDS011;30288;50.514;9.678;2024-02-21T09:23:01;18.05;;;8.43;;
29902;SDS011;30288;50.514;9.678;2024-02-21T09:25:10;19.50;;;7.68;;
29902;SDS011;30288;50.514;9.678;2024-02-21T09:27:17;18.92;;;8.80;;
29902;SDS011;30288;50.514;9.678;2024-02-21T09:29:24;19.40;;;8.35;;
29902;SDS011;30288;50.514;9.678;2024-02-21T09:31:30;15.50;;;8.00;;
29902;SDS011;30288;50.514;9.678;2024-02-21T09:35:39;13.85;;;6.55;;
29902;SDS011;30288;50.514;9.678;2024-02-21T09:37:45;16.77;;;6.75;;
29902;SDS011;30288;50.514;9.678;2024-02-21T09:39:51;16.58;;;7.07;;
29902;SDS011;30288;50.514;9.678;2024-02-21T09:41:59;14.95;;;6.57;;
29902;SDS011;30288;50.514;9.678;2024-02-21T09:44:11;13.77;;;6.25;;
29902;SDS011;30288;50.514;9.678;2024-02-21T09:46:18;17.65;;;6.72;;
29902;SDS011;30288;50.514;9.678;2024-02-21T09:48:30;17.95;;;6.63;;
29902;SDS011;30288;50.514;9.678;2024-02-21T09:50:48;16.90;;;6.68;;
29902;SDS011;30288;50.514;9.678;2024-02-21T09:52:58;16.40;;;6.10;;
29902;SDS011;30288;50.514;9.678;2024-02-21T09:55:06;14.52;;;5.30;;
29902;SDS011;30288;50.514;9.678;2024-02-21T09:57:17;12.25;;;5.50;;
29902;SDS011;30288;50.514;9.678;2024-02-21T09:59:24;19.02;;;6.30;;
29902;SDS011;30288;50.514;9.678;2024-02-21T10:01:32;16.92;;;5.88;;
29902;SDS011;30288;50.514;9.678;2024-02-21T10:03:38;14.63;;;5.85;;
29902;SDS011;30288;50.514;9.678;2024-02-21T10:05:47;19.40;;;6.55;;
29902;SDS011;30288;50.514;9.678;2024-02-21T10:07:54;12.10;;;5.07;;
29902;SDS011;30288;50.514;9.678;2024-02-21T10:10:01;15.95;;;5.40;;
29902;SDS011;30288;50.514;9.678;2024-02-21T10:12:07;12.40;;;5.30;;
29902;SDS011;30288;50.514;9.678;2024-02-21T10:14:17;15.25;;;5.07;;
29902;SDS011;30288;50.514;9.678;2024-02-21T10:16:23;14.65;;;5.15;;
29902;SDS011;30288;50.514;9.678;2024-02-21T10:18:30;13.27;;;5.13;;
29902;SDS011;30288;50.514;9.678;2024-02-21T10:20:36;15.15;;;5.00;;
29902;SDS011;30288;50.514;9.678;2024-02-21T10:22:41;16.05;;;4.85;;
29902;SDS011;30288;50.514;9.678;2024-02-21T10:24:47;19.85;;;5.18;;
29902;SDS011;30288;50.514;9.678;2024-02-21T10:26:58;13.63;;;5.05;;
29902;SDS011;30288;50.514;9.678;2024-02-21T10:29:06;12.50;;;5.15;;
29902;SDS011;30288;50.514;9.678;2024-02-21T10:31:20;17.67;;;5.25;;
29902;SDS011;30288;50.514;9.678;2024-02-21T10:33:28;18.85;;;5.90;;
29902;SDS011;30288;50.514;9.678;2024-02-21T10:35:34;13.88;;;5.28;;
29902;SDS011;30288;50.514;9.678;2024-02-21T10:37:39;13.70;;;5.05;;
29902;SDS011;30288;50.514;9.678;2024-02-21T10:39:47;12.65;;;5.57;;
29902;SDS011;30288;50.514;9.678;2024-02-21T10:41:53;16.23;;;4.57;;
29902;SDS011;30288;50.514;9.678;2024-02-21T10:44:01;13.65;;;5.20;;
29902;SDS011;30288;50.514;9.678;2024-02-21T10:46:10;13.90;;;4.30;;
29902;SDS011;30288;50.514;9.678;2024-02-21T10:48:20;14.70;;;4.38;;
29902;SDS011;30288;50.514;9.678;2024-02-21T10:50:43;15.43;;;4.95;;
29902;SDS011;30288;50.514;9.678;2024-02-21T10:53:05;15.18;;;4.85;;
29902;SDS011;30288;50.514;9.678;2024-02-21T10:55:20;14.05;;;5.13;;
29902;SDS011;30288;50.514;9.678;2024-02-21T10:57:38;12.68;;;4.47;;
29902;SDS011;30288;50.514;9.678;2024-02-21T10:59:46;12.32;;;4.50;;
29902;SDS011;30288;50.514;9.678;2024-02-21T11:01:57;16.02;;;4.68;;
29902;SDS011;30288;50.514;9.678;2024-02-21T11:04:04;11.40;;;3.97;;
29902;SDS011;30288;50.514;9.678;2024-02-21T11:06:12;15.55;;;4.72;;
29902;SDS011;30288;50.514;9.678;2024-02-21T11:08:17;15.50;;;4.40;;
29902;SDS011;30288;50.514;9.678;2024-02-21T11:10:24;11.27;;;4.15;;
29902;SDS011;30288;50.514;9.678;2024-02-21T11:12:32;14.80;;;4.55;;
29902;SDS011;30288;50.514;9.678;2024-02-21T11:14:39;12.38;;;4.47;;
29902;SDS011;30288;50.514;9.678;2024-02-21T11:16:45;9.90;;;3.85;;
29902;SDS011;30288;50.514;9.678;2024-02-21T11:18:52;11.80;;;4.50;;
29902;SDS011;30288;50.514;9.678;2024-02-21T11:21:08;15.40;;;4.47;;
29902;SDS011;30288;50.514;9.678;2024-02-21T11:23:23;11.77;;;4.57;;
29902;SDS011;30288;50.514;9.678;2024-02-21T11:25:30;13.32;;;4.30;;
29902;SDS011;30288;50.514;9.678;2024-02-21T11:27:36;11.80;;;3.75;;
29902;SDS011;30288;50.514;9.678;2024-02-21T11:29:42;14.57;;;4.45;;
29902;SDS011;30288;50.514;9.678;2024-02-21T11:31:49;11.85;;;4.47;;
29902;SDS011;30288;50.514;9.678;2024-02-21T11:33:58;12.38;;;3.92;;
29902;SDS011;30288;50.514;9.678;2024-02-21T11:36:06;13.40;;;4.18;;
29902;SDS011;30288;50.514;9.678;2024-02-21T11:38:10;12.55;;;4.00;;
29902;SDS011;30288;50.514;9.678;2024-02-21T11:40:18;12.32;;;4.10;;
29902;SDS011;30288;50.514;9.678;2024-02-21T11:42:24;13.13;;;3.65;;
29902;SDS011;30288;50.514;9.678;2024-02-21T11:44:33;13.43;;;3.88;;
29902;SDS011;30288;50.514;9.678;2024-02-21T11:46:41;12.80;;;4.07;;
29902;SDS011;30288;50.514;9.678;2024-02-21T11:48:48;12.50;;;4.15;;
29902;SDS011;30288;50.514;9.678;2024-02-21T11:50:57;12.13;;;4.15;;
29902;SDS011;30288;50.514;9.678;2024-02-21T11:53:05;10.90;;;3.55;;
29902;SDS011;30288;50.514;9.678;2024-02-21T11:55:11;11.05;;;3.25;;
29902;SDS011;30288;50.514;9.678;2024-02-21T11:57:17;14.35;;;3.80;;
29902;SDS011;30288;50.514;9.678;2024-02-21T11:59:24;11.68;;;3.75;;
29902;SDS011;30288;50.514;9.678;2024-02-21T12:01:29;7.97;;;3.10;;
29902;SDS011;30288;50.514;9.678;2024-02-21T12:03:36;10.15;;;3.35;;
29902;SDS011;30288;50.514;9.678;2024-02-21T12:05:43;10.32;;;3.13;;
29902;SDS011;30288;50.514;9.678;2024-02-21T12:07:51;13.55;;;3.70;;
29902;SDS011;30288;50.514;9.678;2024-02-21T12:09:58;10.13;;;3.55;;
29902;SDS011;30288;50.514;9.678;2024-02-21T12:12:13;8.10;;;2.97;;
29902;SDS011;30288;50.514;9.678;2024-02-21T12:14:24;11.82;;;2.90;;
29902;SDS011;30288;50.514;9.678;2024-02-21T12:16:32;10.13;;;3.25;;
29902;SDS011;30288;50.514;9.678;2024-02-21T12:18:40;12.52;;;3.83;;
29902;SDS011;30288;50.514;9.678;2024-02-21T12:20:47;10.90;;;3.22;;
29902;SDS011;30288;50.514;9.678;2024-02-21T12:22:55;12.05;;;3.75;;
29902;SDS011;30288;50.514;9.678;2024-02-21T12:25:03;9.07;;;2.47;;
29902;SDS011;30288;50.514;9.678;2024-02-21T12:27:09;10.73;;;3.25;;
29902;SDS011;30288;50.514;9.678;2024-02-21T12:29:16;12.75;;;3.33;;
29902;SDS011;30288;50.514;9.678;2024-02-21T12:31:21;12.85;;;3.58;;